createdAt,value
2022-12-20T00:01:21.649Z,-2.91
2022-12-20T00:03:53.169Z,-2.71
2022-12-20T00:06:20.671Z,-2.76
2022-12-20T00:08:47.931Z,-2.73
2022-12-20T00:11:14.541Z,-2.74
2022-12-20T00:13:41.384Z,-2.63
2022-12-20T00:16:14.129Z,-2.31
2022-12-20T00:18:41.827Z,-2.53
2022-12-20T00:21:11.343Z,-2.84
2022-12-20T00:23:38.382Z,-2.59
2022-12-20T00:26:07.649Z,-2.43
2022-12-20T00:28:35.629Z,-2.43
2022-12-20T00:31:04.408Z,-2.30
2022-12-20T00:33:32.128Z,-2.57
2022-12-20T00:35:58.720Z,-2.64
2022-12-20T00:38:26.399Z,-2.44
2022-12-20T00:41:12.321Z,-2.29
2022-12-20T00:43:40.354Z,-2.68
2022-12-20T00:46:08.819Z,-2.63
2022-12-20T00:48:35.542Z,-2.62
2022-12-20T00:51:04.577Z,-2.70
2022-12-20T00:53:32.105Z,-2.24
2022-12-20T00:55:59.814Z,-2.52
2022-12-20T00:58:27.331Z,-2.25
2022-12-20T01:00:56.965Z,-2.19
2022-12-20T01:03:25.247Z,-2.31
2022-12-20T01:05:57.384Z,-2.45
2022-12-20T01:08:25.785Z,-2.49
2022-12-20T01:11:11.948Z,-2.33
2022-12-20T01:13:40.538Z,-2.29
2022-12-20T01:16:12.313Z,-2.45
2022-12-20T01:18:39.114Z,-2.38
2022-12-20T01:21:08.933Z,-2.20
2022-12-20T01:23:35.871Z,-2.10
2022-12-20T01:26:04.877Z,-2.06
2022-12-20T01:28:32.360Z,-1.94
2022-12-20T01:30:58.954Z,-2.04
2022-12-20T01:33:25.675Z,-1.91
2022-12-20T01:36:00.604Z,-2.28
2022-12-20T01:38:28.422Z,-2.15
2022-12-20T01:40:56.328Z,-2.18
2022-12-20T01:43:24.504Z,-2.06
2022-12-20T01:45:51.183Z,-2.22
2022-12-20T01:48:25.671Z,-2.05
2022-12-20T01:50:53.404Z,-1.99
2022-12-20T01:53:23.189Z,-2.36
2022-12-20T01:55:50.139Z,-2.31
2022-12-20T01:58:19.717Z,-1.96
2022-12-20T02:00:47.312Z,-1.64
2022-12-20T02:03:15.203Z,-2.10
2022-12-20T02:05:45.654Z,-2.13
2022-12-20T02:08:16.922Z,-2.17
2022-12-20T02:11:39.143Z,-2.28
2022-12-20T02:14:18.080Z,-2.38
2022-12-20T02:17:02.007Z,-2.21
2022-12-20T02:20:24.959Z,-2.02
2022-12-20T02:23:15.895Z,-2.20
2022-12-20T02:25:48.334Z,-2.23
2022-12-20T02:28:44.248Z,-2.12
2022-12-20T02:31:14.236Z,-2.33
2022-12-20T02:33:47.772Z,-2.29
2022-12-20T02:36:16.832Z,-2.19
2022-12-20T02:38:43.449Z,-2.44
2022-12-20T02:41:18.319Z,-2.52
2022-12-20T02:43:53.635Z,-2.34
2022-12-20T02:46:22.424Z,-2.35
2022-12-20T02:48:51.035Z,-2.44
2022-12-20T02:51:21.526Z,-2.53
2022-12-20T02:53:48.432Z,-2.49
2022-12-20T02:56:22.087Z,-2.22
2022-12-20T02:58:53.829Z,-2.54
2022-12-20T03:01:44.848Z,-2.61
2022-12-20T03:04:12.740Z,-2.66
2022-12-20T03:06:40.126Z,-2.34
2022-12-20T03:09:06.722Z,-2.17
2022-12-20T03:11:33.318Z,-2.36
2022-12-20T03:13:59.926Z,-2.16
2022-12-20T03:16:26.575Z,-2.34
2022-12-20T03:18:53.333Z,-2.15
2022-12-20T03:21:19.928Z,-2.33
2022-12-20T03:23:46.585Z,-2.36
2022-12-20T03:26:13.255Z,-2.20
2022-12-20T03:28:39.861Z,-2.21
2022-12-20T03:31:06.747Z,-2.31
2022-12-20T03:33:33.403Z,-2.00
2022-12-20T03:35:59.985Z,-2.19
2022-12-20T03:38:26.672Z,-2.03
2022-12-20T03:40:53.243Z,-2.36
2022-12-20T03:43:19.835Z,-2.51
2022-12-20T03:45:46.453Z,-2.65
2022-12-20T03:48:13.050Z,-2.64
2022-12-20T03:50:39.835Z,-2.53
2022-12-20T03:53:06.478Z,-2.32
2022-12-20T03:55:33.134Z,-2.35
2022-12-20T03:57:59.964Z,-2.35
2022-12-20T04:00:26.570Z,-2.32
2022-12-20T04:02:53.362Z,-2.34
2022-12-20T04:05:20.172Z,-2.44
2022-12-20T04:07:46.776Z,-2.27
2022-12-20T04:10:13.759Z,-2.20
2022-12-20T04:12:40.326Z,-2.63
2022-12-20T04:15:07.611Z,-2.16
2022-12-20T04:17:34.207Z,-2.31
2022-12-20T04:20:00.801Z,-2.53
2022-12-20T04:22:27.478Z,-2.36
2022-12-20T04:24:54.138Z,-2.57
2022-12-20T04:27:20.729Z,-2.71
2022-12-20T04:29:47.406Z,-2.56
2022-12-20T04:32:13.988Z,-2.43
2022-12-20T04:34:40.600Z,-2.18
2022-12-20T04:37:07.305Z,-2.16
2022-12-20T04:39:33.909Z,-2.19
2022-12-20T04:42:00.525Z,-2.37
2022-12-20T04:44:27.109Z,-2.20
2022-12-20T04:46:53.741Z,-2.32
2022-12-20T04:49:21.485Z,-2.23
2022-12-20T04:51:48.082Z,-2.00
2022-12-20T04:54:14.681Z,-1.98
2022-12-20T04:56:41.334Z,-2.05
2022-12-20T04:59:07.957Z,-2.16
2022-12-20T05:01:34.619Z,-1.91
2022-12-20T05:04:01.508Z,-2.08
2022-12-20T05:06:28.259Z,-2.15
2022-12-20T05:08:54.833Z,-1.97
2022-12-20T05:11:21.458Z,-2.13
2022-12-20T05:13:48.033Z,-2.15
2022-12-20T05:16:14.801Z,-2.40
2022-12-20T05:18:48.161Z,-2.54
2022-12-20T05:21:15.743Z,-2.34
2022-12-20T05:23:42.881Z,-2.21
2022-12-20T05:26:09.468Z,-2.05
2022-12-20T05:28:36.486Z,-2.00
2022-12-20T05:31:03.596Z,-2.03
2022-12-20T05:33:33.993Z,-1.89
2022-12-20T05:36:01.036Z,-2.37
2022-12-20T05:38:28.192Z,-2.07
2022-12-20T05:40:54.903Z,-2.09
2022-12-20T05:43:21.483Z,-2.25
2022-12-20T05:45:50.737Z,-2.00
2022-12-20T05:48:18.212Z,-1.97
2022-12-20T05:50:45.355Z,-2.02
2022-12-20T05:53:13.792Z,-2.07
2022-12-20T05:55:51.961Z,-1.92
2022-12-20T05:58:19.085Z,-1.98
2022-12-20T06:00:45.829Z,-2.06
2022-12-20T06:03:12.522Z,-2.11
2022-12-20T06:05:39.677Z,-2.31
2022-12-20T06:08:07.237Z,-2.34
2022-12-20T06:10:34.833Z,-2.19
2022-12-20T06:13:02.655Z,-2.30
2022-12-20T06:15:30.660Z,-2.21
2022-12-20T06:17:57.386Z,-1.92
2022-12-20T06:20:24.060Z,-2.10
2022-12-20T06:22:50.667Z,-2.18
2022-12-20T06:25:17.298Z,-2.25
2022-12-20T06:27:43.941Z,-2.10
2022-12-20T06:30:11.517Z,-2.12
2022-12-20T06:32:38.109Z,-2.30
2022-12-20T06:35:05.205Z,-2.41
2022-12-20T06:37:31.985Z,-2.21
2022-12-20T06:39:58.602Z,-2.46
2022-12-20T06:42:25.347Z,-2.43
2022-12-20T06:44:51.939Z,-2.71
2022-12-20T06:47:18.557Z,-2.61
2022-12-20T06:49:46.288Z,-2.37
2022-12-20T06:52:12.939Z,-2.31
2022-12-20T06:54:39.531Z,-2.39
2022-12-20T06:57:06.119Z,-2.56
2022-12-20T06:59:32.696Z,-2.57
2022-12-20T07:01:59.546Z,-2.47
2022-12-20T07:04:26.414Z,-2.43
2022-12-20T07:06:53.010Z,-2.39
2022-12-20T07:09:19.670Z,-2.24
2022-12-20T07:11:46.297Z,-2.43
2022-12-20T07:14:12.896Z,-2.52
2022-12-20T07:16:39.629Z,-2.64
2022-12-20T07:19:06.242Z,-2.90
2022-12-20T07:21:32.870Z,-2.64
2022-12-20T07:23:59.467Z,-2.50
2022-12-20T07:26:26.067Z,-2.28
2022-12-20T07:28:52.837Z,-2.20
2022-12-20T07:31:19.467Z,-2.13
2022-12-20T07:33:46.083Z,-2.14
2022-12-20T07:36:14.105Z,-2.20
2022-12-20T07:38:40.703Z,-2.58
2022-12-20T07:41:12.855Z,-2.55
2022-12-20T07:43:39.542Z,-2.62
2022-12-20T07:46:07.603Z,-2.48
2022-12-20T07:48:34.829Z,-2.11
2022-12-20T07:51:04.593Z,-2.02
2022-12-20T07:53:35.027Z,-2.30
2022-12-20T07:56:03.514Z,-2.21
2022-12-20T07:58:31.447Z,-2.11
2022-12-20T08:00:58.223Z,-1.78
2022-12-20T08:03:30.996Z,-1.92
2022-12-20T08:06:00.903Z,-1.73
2022-12-20T08:08:27.553Z,-1.58
2022-12-20T08:10:54.286Z,-1.92
2022-12-20T08:13:21.045Z,-2.00
2022-12-20T08:15:47.652Z,-1.88
2022-12-20T08:18:14.243Z,-1.89
2022-12-20T08:20:40.880Z,-1.95
2022-12-20T08:23:07.617Z,-1.77
2022-12-20T08:25:41.180Z,-1.95
2022-12-20T08:28:08.368Z,-1.74
2022-12-20T08:30:35.012Z,-1.65
2022-12-20T08:33:01.656Z,-1.81
2022-12-20T08:35:28.521Z,-1.75
2022-12-20T08:37:55.135Z,-1.87
2022-12-20T08:40:21.736Z,-1.78
2022-12-20T08:42:48.433Z,-1.38
2022-12-20T08:45:15.065Z,-1.49
2022-12-20T08:47:41.650Z,-1.92
2022-12-20T08:50:08.689Z,-1.75
2022-12-20T08:52:35.297Z,-1.89
2022-12-20T08:55:02.412Z,-1.62
2022-12-20T08:57:30.899Z,-1.74
2022-12-20T08:59:57.691Z,-1.69
2022-12-20T09:02:24.481Z,-1.89
2022-12-20T09:04:51.115Z,-1.84
2022-12-20T09:07:17.736Z,-1.52
2022-12-20T09:09:44.358Z,-1.44
2022-12-20T09:12:10.963Z,-1.28
2022-12-20T09:14:37.721Z,-1.26
2022-12-20T09:17:04.738Z,-1.37
2022-12-20T09:19:31.383Z,-1.00
2022-12-20T09:21:57.988Z,-0.88
2022-12-20T09:24:24.569Z,-1.06
2022-12-20T09:26:52.280Z,-1.07
2022-12-20T09:29:25.878Z,-0.99
2022-12-20T09:31:55.063Z,-0.95
2022-12-20T09:34:21.684Z,-1.11
2022-12-20T09:36:48.298Z,-0.56
2022-12-20T09:39:14.942Z,-0.53
2022-12-20T09:41:42.748Z,-0.87
2022-12-20T09:44:24.590Z,-0.97
2022-12-20T09:47:08.180Z,-0.83
2022-12-20T09:49:42.086Z,-0.85
2022-12-20T09:52:25.248Z,-0.78
2022-12-20T09:55:16.482Z,-0.82
2022-12-20T09:58:01.305Z,-0.64
2022-12-20T10:00:28.417Z,-0.31
2022-12-20T10:03:06.112Z,-0.37
2022-12-20T10:05:47.003Z,-0.53
2022-12-20T10:08:54.513Z,-0.63
2022-12-20T10:11:46.230Z,-0.28
2022-12-20T10:14:50.675Z,-0.10
2022-12-20T10:17:46.225Z,-0.23
2022-12-20T10:20:15.870Z,-0.04
2022-12-20T10:23:05.921Z,0.04
2022-12-20T10:25:34.739Z,-0.50
2022-12-20T10:28:09.707Z,-0.24
2022-12-20T10:30:36.528Z,-0.20
2022-12-20T10:33:03.228Z,-0.17
2022-12-20T10:35:34.288Z,0.04
2022-12-20T10:38:09.839Z,0.15
2022-12-20T10:47:50.161Z,0.62
2022-12-20T10:50:23.433Z,0.49
2022-12-20T10:53:04.718Z,0.64
2022-12-20T10:55:40.367Z,0.80
2022-12-20T10:58:29.010Z,1.02
2022-12-20T11:01:19.412Z,0.84
2022-12-20T11:04:07.219Z,0.63
2022-12-20T11:06:39.543Z,0.88
2022-12-20T11:09:26.555Z,0.86
2022-12-20T11:12:09.889Z,0.95
2022-12-20T11:14:39.661Z,1.00
2022-12-20T11:17:36.791Z,1.04
2022-12-20T11:20:22.338Z,1.11
2022-12-20T11:23:06.953Z,0.96
2022-12-20T11:25:36.989Z,0.99
2022-12-20T11:28:25.520Z,1.16
2022-12-20T11:31:42.821Z,1.05
2022-12-20T11:34:27.214Z,1.05
2022-12-20T11:37:21.088Z,1.10
2022-12-20T11:39:59.390Z,0.95
2022-12-20T11:42:34.933Z,1.01
2022-12-20T11:45:15.874Z,1.28
2022-12-20T11:48:10.190Z,1.38
2022-12-20T11:51:04.702Z,1.20
2022-12-20T11:53:49.735Z,1.17
2022-12-20T11:56:21.437Z,1.28
2022-12-20T11:59:04.564Z,1.35
2022-12-20T12:02:04.939Z,1.41
2022-12-20T12:04:39.128Z,1.63
2022-12-20T12:07:20.620Z,1.39
2022-12-20T12:10:03.894Z,1.53
2022-12-20T12:12:54.705Z,1.79
2022-12-20T12:15:56.642Z,1.62
2022-12-20T12:18:34.518Z,1.89
2022-12-20T12:21:39.341Z,2.03
2022-12-20T12:24:28.505Z,1.99
2022-12-20T12:26:55.263Z,2.01
2022-12-20T12:29:22.380Z,2.14
2022-12-20T12:31:49.232Z,2.29
2022-12-20T12:34:37.328Z,2.04
2022-12-20T12:37:37.817Z,1.74
2022-12-20T12:40:11.086Z,1.60
2022-12-20T12:43:16.903Z,1.17
2022-12-20T12:45:48.066Z,1.44
2022-12-20T12:48:27.491Z,1.54
2022-12-20T12:50:57.312Z,1.80
2022-12-20T12:53:32.717Z,1.66
2022-12-20T12:56:19.340Z,1.47
2022-12-20T12:59:05.905Z,1.56
2022-12-20T13:02:13.880Z,1.60
2022-12-20T13:04:55.846Z,1.14
2022-12-20T13:07:31.687Z,1.47
2022-12-20T13:09:59.479Z,1.40
2022-12-20T13:12:38.319Z,1.40
2022-12-20T13:15:20.152Z,1.07
2022-12-20T13:17:53.440Z,1.45
2022-12-20T13:20:21.456Z,1.52
2022-12-20T13:23:10.018Z,1.20
2022-12-20T13:25:42.753Z,0.99
2022-12-20T13:28:29.552Z,1.39
2022-12-20T13:31:02.153Z,1.25
2022-12-20T13:33:47.576Z,0.98
2022-12-20T13:36:37.522Z,0.66
2022-12-20T13:39:23.986Z,0.83
2022-12-20T13:42:30.945Z,0.79
2022-12-20T13:45:03.537Z,0.96
2022-12-20T13:47:35.042Z,1.00
2022-12-20T13:50:22.808Z,0.84
2022-12-20T13:52:49.517Z,0.97
2022-12-20T13:55:25.583Z,1.13
2022-12-20T13:57:54.037Z,1.06
2022-12-20T14:00:25.960Z,1.00
2022-12-20T14:02:54.226Z,0.97
2022-12-20T14:05:27.225Z,0.95
2022-12-20T14:08:02.770Z,1.04
2022-12-20T14:10:31.264Z,0.95
2022-12-20T14:12:58.481Z,1.10
2022-12-20T14:15:32.193Z,0.86
2022-12-20T14:18:06.499Z,0.90
2022-12-20T14:20:37.411Z,1.04
2022-12-20T14:23:11.005Z,0.87
2022-12-20T14:25:44.000Z,1.10
2022-12-20T14:28:24.921Z,0.89
2022-12-20T14:30:54.074Z,0.78
2022-12-20T14:33:34.459Z,0.55
2022-12-20T14:36:19.683Z,0.64
2022-12-20T14:38:51.234Z,0.80
2022-12-20T14:41:32.879Z,0.89
2022-12-20T14:44:22.835Z,0.85
2022-12-20T14:46:49.897Z,0.68
2022-12-20T14:49:34.578Z,0.58
2022-12-20T14:52:13.068Z,0.50
2022-12-20T14:55:09.539Z,0.60
2022-12-20T14:57:36.672Z,0.80
2022-12-20T15:00:30.470Z,0.74
2022-12-20T15:02:57.299Z,0.39
2022-12-20T15:05:36.788Z,0.30
2022-12-20T15:08:32.741Z,0.42
2022-12-20T15:11:08.272Z,0.48
2022-12-20T15:13:43.074Z,0.44
2022-12-20T15:16:24.468Z,0.26
2022-12-20T15:18:55.302Z,0.10
2022-12-20T15:21:33.345Z,0.50
2022-12-20T15:24:02.000Z,0.38
2022-12-20T15:26:30.472Z,0.37
2022-12-20T15:28:57.227Z,0.43
2022-12-20T15:31:32.415Z,0.51
2022-12-20T15:34:00.630Z,0.47
2022-12-20T15:36:28.801Z,0.37
2022-12-20T15:39:13.553Z,0.30
2022-12-20T15:41:48.606Z,0.11
2022-12-20T15:44:26.293Z,-0.01
2022-12-20T15:46:53.183Z,-0.23
2022-12-20T15:49:23.182Z,-0.06
2022-12-20T15:51:51.854Z,0.06
2022-12-20T15:54:31.549Z,0.08
2022-12-20T15:57:01.319Z,0.31
2022-12-20T16:02:24.803Z,0.07
2022-12-20T16:04:53.238Z,0.08
2022-12-20T16:07:19.965Z,0.04
2022-12-20T16:09:46.587Z,-0.06
2022-12-20T16:12:19.608Z,0.22
2022-12-20T16:14:46.208Z,0.28
2022-12-20T16:17:14.219Z,0.17
2022-12-20T16:19:42.165Z,0.06
2022-12-20T16:22:18.541Z,-0.01
2022-12-20T16:24:46.142Z,0.11
2022-12-20T16:27:13.073Z,0.10
2022-12-20T16:29:39.802Z,-0.04
2022-12-20T16:32:17.914Z,-0.02
2022-12-20T16:34:44.676Z,-0.06
2022-12-20T16:37:11.363Z,-0.09
2022-12-20T16:39:37.957Z,-0.23
2022-12-20T16:42:11.843Z,-0.03
2022-12-20T16:44:38.449Z,-0.04
2022-12-20T16:47:05.077Z,0.08
2022-12-20T16:49:31.731Z,-0.04
2022-12-20T16:51:58.327Z,-0.12
2022-12-20T16:54:24.924Z,-0.07
2022-12-20T16:56:52.470Z,-0.08
2022-12-20T16:59:21.340Z,-0.00
2022-12-20T17:01:50.079Z,-0.41
2022-12-20T17:04:18.249Z,-0.26
2022-12-20T17:06:45.565Z,0.02
2022-12-20T17:11:58.582Z,-0.01
2022-12-20T17:14:25.232Z,-0.06
2022-12-20T17:16:51.908Z,-0.25
2022-12-20T17:19:18.595Z,-0.11
2022-12-20T17:24:33.486Z,-0.08
2022-12-20T17:27:00.100Z,0.02
2022-12-20T17:29:26.743Z,0.03
2022-12-20T17:31:53.370Z,-0.06
2022-12-20T17:34:23.147Z,-0.17
2022-12-20T17:36:51.997Z,0.09
2022-12-20T17:39:19.042Z,-0.20
2022-12-20T17:41:46.623Z,-0.31
2022-12-20T17:44:27.921Z,0.21
2022-12-20T17:46:56.604Z,0.00
2022-12-20T17:49:24.305Z,0.20
2022-12-20T17:51:51.536Z,0.39
2022-12-20T17:54:20.863Z,0.52
2022-12-20T17:56:48.106Z,0.51
2022-12-20T17:59:14.738Z,-0.09
2022-12-20T18:01:42.759Z,-0.20
2022-12-20T18:04:12.304Z,-0.31
2022-12-20T18:06:40.874Z,-0.12
2022-12-20T18:09:21.583Z,-0.13
2022-12-20T18:11:48.325Z,-0.23
2022-12-20T18:14:15.539Z,0.15
2022-12-20T18:16:42.319Z,-0.15
2022-12-20T18:19:15.798Z,-0.26
2022-12-20T18:21:42.398Z,0.03
2022-12-20T18:24:14.569Z,-0.27
2022-12-20T18:26:41.971Z,-0.33
2022-12-20T18:29:10.839Z,-0.36
2022-12-20T18:31:37.912Z,-0.40
2022-12-20T18:34:04.875Z,-0.08
2022-12-20T18:36:36.575Z,-0.20
2022-12-20T18:39:06.150Z,-0.08
2022-12-20T18:41:33.329Z,-0.10
2022-12-20T18:44:05.257Z,-0.19
2022-12-20T18:46:32.757Z,-0.05
2022-12-20T18:49:00.620Z,-0.11
2022-12-20T18:51:32.736Z,-0.33
2022-12-20T18:53:59.962Z,-0.22
2022-12-20T18:56:30.372Z,-0.62
2022-12-20T18:59:01.705Z,-0.29
2022-12-20T19:01:34.348Z,-0.32
2022-12-20T19:04:03.055Z,-0.28
2022-12-20T19:06:30.865Z,-0.37
2022-12-20T19:08:59.578Z,-0.57
2022-12-20T19:11:26.273Z,-0.33
2022-12-20T19:13:52.859Z,-0.73
2022-12-20T19:16:23.060Z,-0.91
2022-12-20T19:18:50.056Z,-0.49
2022-12-20T19:21:24.653Z,-0.44
2022-12-20T19:23:54.701Z,-0.67
2022-12-20T19:26:23.944Z,-0.58
2022-12-20T19:28:50.634Z,-0.59
2022-12-20T19:31:21.856Z,-0.48
2022-12-20T19:33:50.363Z,-0.46
2022-12-20T19:36:28.505Z,-0.46
2022-12-20T19:38:57.658Z,-0.43
2022-12-20T19:41:27.328Z,-0.60
2022-12-20T19:43:54.784Z,-0.83
2022-12-20T19:46:26.537Z,-0.54
2022-12-20T19:48:56.317Z,-0.50
2022-12-20T19:51:23.550Z,-0.18
2022-12-20T19:53:51.202Z,-0.13
2022-12-20T19:56:20.525Z,-0.15
2022-12-20T19:58:47.408Z,-0.52
2022-12-20T20:01:15.716Z,-0.45
2022-12-20T20:03:42.494Z,-0.67
2022-12-20T20:06:09.759Z,-0.85
2022-12-20T20:08:36.735Z,-0.64
2022-12-20T20:11:09.367Z,-0.28
2022-12-20T20:13:36.613Z,-0.54
2022-12-20T20:16:03.471Z,-0.68
2022-12-20T20:18:33.349Z,-0.78
2022-12-20T20:20:59.967Z,-0.68
2022-12-20T20:23:27.491Z,-0.52
2022-12-20T20:25:56.132Z,-0.43
2022-12-20T20:28:31.678Z,-0.70
2022-12-20T20:30:59.875Z,-0.67
2022-12-20T20:33:26.632Z,-0.60
2022-12-20T20:35:58.500Z,-0.48
2022-12-20T20:38:25.789Z,-0.75
2022-12-20T20:40:52.445Z,-0.72
2022-12-20T20:43:20.004Z,-0.52
2022-12-20T20:45:46.696Z,-0.56
2022-12-20T20:48:13.740Z,-0.72
2022-12-20T20:50:40.522Z,-0.82
2022-12-20T20:53:07.302Z,-0.46
2022-12-20T20:55:34.667Z,-0.30
2022-12-20T20:58:02.094Z,-0.30
2022-12-20T21:00:29.859Z,-0.24
2022-12-20T21:02:56.638Z,-0.61
2022-12-20T21:08:10.224Z,-0.76
2022-12-20T21:10:37.280Z,-0.83
2022-12-20T21:13:04.981Z,-0.44
2022-12-20T21:15:31.579Z,-0.77
2022-12-20T21:17:58.162Z,-0.74
2022-12-20T21:20:26.503Z,-0.91
2022-12-20T21:22:53.537Z,-0.93
2022-12-20T21:25:20.183Z,-0.88
2022-12-20T21:27:46.775Z,-1.04
2022-12-20T21:30:13.437Z,-1.17
2022-12-20T21:32:40.036Z,-0.94
2022-12-20T21:35:06.900Z,-1.08
2022-12-20T21:37:33.515Z,-0.90
2022-12-20T21:40:00.350Z,-0.96
2022-12-20T21:42:27.047Z,-1.06
2022-12-20T21:44:53.665Z,-1.04
2022-12-20T21:47:20.268Z,-1.15
2022-12-20T21:49:46.898Z,-1.14
2022-12-20T21:52:13.632Z,-0.99
2022-12-20T21:54:40.633Z,-0.97
2022-12-20T21:57:07.215Z,-0.92
2022-12-20T21:59:33.813Z,-0.97
2022-12-20T22:02:00.760Z,-1.00
2022-12-20T22:04:27.652Z,-0.99
2022-12-20T22:06:54.251Z,-0.99
2022-12-20T22:09:20.855Z,-0.84
2022-12-20T22:11:47.895Z,-0.82
2022-12-20T22:14:15.293Z,-0.66
2022-12-20T22:16:42.951Z,-0.78
2022-12-20T22:19:13.247Z,-0.56
2022-12-20T22:21:39.817Z,-0.64
2022-12-20T22:24:06.667Z,-0.67
2022-12-20T22:26:33.436Z,-0.69
2022-12-20T22:29:05.735Z,-0.65
2022-12-20T22:31:33.568Z,-0.62
2022-12-20T22:34:00.948Z,-0.62
2022-12-20T22:36:28.090Z,-0.69
2022-12-20T22:38:56.318Z,-0.71
2022-12-20T22:41:25.977Z,-0.78
2022-12-20T22:43:52.715Z,-0.69
2022-12-20T22:46:19.919Z,-0.69
2022-12-20T22:48:46.868Z,-0.61
2022-12-20T22:51:21.507Z,-0.99
2022-12-20T22:53:49.191Z,-0.48
2022-12-20T22:56:17.625Z,-0.59
2022-12-20T22:58:44.233Z,-0.38
2022-12-20T23:01:14.016Z,-0.78
2022-12-20T23:03:41.274Z,-0.89
2022-12-20T23:06:12.104Z,-0.63
2022-12-20T23:08:39.101Z,-0.98
2022-12-20T23:11:15.349Z,-0.53
2022-12-20T23:13:42.937Z,-0.71
2022-12-20T23:16:11.982Z,-0.75
2022-12-20T23:18:38.640Z,-0.49
2022-12-20T23:21:05.309Z,-0.42
2022-12-20T23:23:32.310Z,-0.71
2022-12-20T23:26:09.000Z,-0.49
2022-12-20T23:28:35.598Z,-0.62
2022-12-20T23:31:04.482Z,-0.50
2022-12-20T23:33:31.078Z,-0.33
2022-12-20T23:35:59.395Z,-0.19
2022-12-20T23:38:26.017Z,-0.30
2022-12-20T23:40:53.204Z,-0.65
2022-12-20T23:43:19.795Z,-0.53
2022-12-20T23:45:46.451Z,-0.55
2022-12-20T23:48:14.322Z,-0.40
2022-12-20T23:50:40.936Z,-0.35
2022-12-20T23:53:07.545Z,-0.32
2022-12-20T23:55:34.144Z,-0.64
2022-12-20T23:58:00.791Z,-0.38
